sensor_id;sensor_type;location;lat;lon;timestamp;P1;durP1;ratioP1;P2;durP2;ratioP2
77400;SDS011;66855;45.414;11.082;2023-03-04T00:01:40;10.60;;;5.30;;
77400;SDS011;66855;45.414;11.082;2023-03-04T00:04:06;10.00;;;5.20;;
77400;SDS011;66855;45.414;11.082;2023-03-04T00:06:32;9.60;;;4.90;;
77400;SDS011;66855;45.414;11.082;2023-03-04T00:08:58;7.00;;;4.60;;
77400;SDS011;66855;45.414;11.082;2023-03-04T00:11:24;7.70;;;4.60;;
77400;SDS011;66855;45.414;11.082;2023-03-04T00:13:51;10.00;;;5.50;;
77400;SDS011;66855;45.414;11.082;2023-03-04T00:16:17;9.00;;;4.80;;
77400;SDS011;66855;45.414;11.082;2023-03-04T00:18:44;9.40;;;4.70;;
77400;SDS011;66855;45.414;11.082;2023-03-04T00:21:10;15.50;;;5.30;;
77400;SDS011;66855;45.414;11.082;2023-03-04T00:23:36;9.20;;;4.60;;
77400;SDS011;66855;45.414;11.082;2023-03-04T00:26:02;9.10;;;5.20;;
77400;SDS011;66855;45.414;11.082;2023-03-04T00:28:28;9.20;;;5.30;;
77400;SDS011;66855;45.414;11.082;2023-03-04T00:30:54;13.20;;;5.00;;
77400;SDS011;66855;45.414;11.082;2023-03-04T00:33:21;10.60;;;6.20;;
77400;SDS011;66855;45.414;11.082;2023-03-04T00:35:47;12.80;;;4.80;;
77400;SDS011;66855;45.414;11.082;2023-03-04T00:38:13;10.70;;;5.20;;
77400;SDS011;66855;45.414;11.082;2023-03-04T00:40:40;8.70;;;4.50;;
77400;SDS011;66855;45.414;11.082;2023-03-04T00:43:07;6.40;;;3.30;;
77400;SDS011;66855;45.414;11.082;2023-03-04T00:45:33;8.30;;;3.80;;
77400;SDS011;66855;45.414;11.082;2023-03-04T00:47:59;8.70;;;4.30;;
77400;SDS011;66855;45.414;11.082;2023-03-04T00:50:25;7.20;;;3.90;;
77400;SDS011;66855;45.414;11.082;2023-03-04T00:52:51;8.50;;;2.80;;
77400;SDS011;66855;45.414;11.082;2023-03-04T00:55:17;8.60;;;3.80;;
77400;SDS011;66855;45.414;11.082;2023-03-04T00:57:43;6.40;;;3.60;;
77400;SDS011;66855;45.414;11.082;2023-03-04T01:00:10;9.40;;;4.00;;
77400;SDS011;66855;45.414;11.082;2023-03-04T01:02:37;8.10;;;4.30;;
77400;SDS011;66855;45.414;11.082;2023-03-04T01:05:03;3.70;;;2.20;;
77400;SDS011;66855;45.414;11.082;2023-03-04T01:07:31;8.40;;;3.70;;
77400;SDS011;66855;45.414;11.082;2023-03-04T01:09:59;6.70;;;3.70;;
77400;SDS011;66855;45.414;11.082;2023-03-04T01:12:25;6.10;;;3.40;;
77400;SDS011;66855;45.414;11.082;2023-03-04T01:14:52;5.90;;;3.40;;
77400;SDS011;66855;45.414;11.082;2023-03-04T01:17:19;6.10;;;3.10;;
77400;SDS011;66855;45.414;11.082;2023-03-04T01:19:46;4.60;;;3.00;;
77400;SDS011;66855;45.414;11.082;2023-03-04T01:22:13;6.60;;;3.30;;
77400;SDS011;66855;45.414;11.082;2023-03-04T01:24:41;7.90;;;3.90;;
77400;SDS011;66855;45.414;11.082;2023-03-04T01:27:07;9.40;;;4.30;;
77400;SDS011;66855;45.414;11.082;2023-03-04T01:29:33;7.00;;;4.10;;
77400;SDS011;66855;45.414;11.082;2023-03-04T01:32:01;9.40;;;4.70;;
77400;SDS011;66855;45.414;11.082;2023-03-04T01:34:27;6.20;;;3.90;;
77400;SDS011;66855;45.414;11.082;2023-03-04T01:36:53;6.20;;;3.30;;
77400;SDS011;66855;45.414;11.082;2023-03-04T01:39:19;6.00;;;3.60;;
77400;SDS011;66855;45.414;11.082;2023-03-04T01:41:45;6.80;;;3.70;;
77400;SDS011;66855;45.414;11.082;2023-03-04T01:44:11;8.00;;;3.90;;
77400;SDS011;66855;45.414;11.082;2023-03-04T01:46:37;7.30;;;3.60;;
77400;SDS011;66855;45.414;11.082;2023-03-04T01:49:06;7.30;;;3.60;;
77400;SDS011;66855;45.414;11.082;2023-03-04T01:51:32;8.30;;;3.30;;
77400;SDS011;66855;45.414;11.082;2023-03-04T01:53:58;6.00;;;2.90;;
77400;SDS011;66855;45.414;11.082;2023-03-04T01:56:25;4.50;;;2.60;;
77400;SDS011;66855;45.414;11.082;2023-03-04T02:02:02;7.40;;;3.40;;
77400;SDS011;66855;45.414;11.082;2023-03-04T02:04:29;7.20;;;3.30;;
77400;SDS011;66855;45.414;11.082;2023-03-04T02:06:56;7.10;;;3.80;;
77400;SDS011;66855;45.414;11.082;2023-03-04T02:09:23;9.40;;;3.70;;
77400;SDS011;66855;45.414;11.082;2023-03-04T02:11:49;9.00;;;3.70;;
77400;SDS011;66855;45.414;11.082;2023-03-04T02:14:17;7.60;;;4.00;;
77400;SDS011;66855;45.414;11.082;2023-03-04T02:16:44;8.60;;;4.60;;
77400;SDS011;66855;45.414;11.082;2023-03-04T02:21:49;6.90;;;4.50;;
77400;SDS011;66855;45.414;11.082;2023-03-04T02:24:16;12.30;;;4.20;;
77400;SDS011;66855;45.414;11.082;2023-03-04T02:26:48;8.10;;;3.80;;
77400;SDS011;66855;45.414;11.082;2023-03-04T02:29:16;8.20;;;4.10;;
77400;SDS011;66855;45.414;11.082;2023-03-04T02:31:43;7.60;;;4.00;;
77400;SDS011;66855;45.414;11.082;2023-03-04T02:34:12;7.40;;;3.60;;
77400;SDS011;66855;45.414;11.082;2023-03-04T02:36:45;9.20;;;3.60;;
77400;SDS011;66855;45.414;11.082;2023-03-04T02:42:00;8.80;;;4.20;;
77400;SDS011;66855;45.414;11.082;2023-03-04T02:44:28;7.70;;;4.00;;
77400;SDS011;66855;45.414;11.082;2023-03-04T02:46:56;8.30;;;4.40;;
77400;SDS011;66855;45.414;11.082;2023-03-04T02:49:24;10.40;;;4.40;;
77400;SDS011;66855;45.414;11.082;2023-03-04T02:51:53;7.80;;;4.20;;
77400;SDS011;66855;45.414;11.082;2023-03-04T02:54:24;7.60;;;3.50;;
77400;SDS011;66855;45.414;11.082;2023-03-04T02:56:52;9.20;;;3.50;;
77400;SDS011;66855;45.414;11.082;2023-03-04T02:59:22;9.70;;;4.70;;
77400;SDS011;66855;45.414;11.082;2023-03-04T03:01:48;9.70;;;4.70;;
77400;SDS011;66855;45.414;11.082;2023-03-04T03:04:15;6.50;;;3.80;;
77400;SDS011;66855;45.414;11.082;2023-03-04T03:06:42;9.20;;;4.70;;
77400;SDS011;66855;45.414;11.082;2023-03-04T03:09:09;7.40;;;4.50;;
77400;SDS011;66855;45.414;11.082;2023-03-04T03:11:36;9.40;;;4.60;;
77400;SDS011;66855;45.414;11.082;2023-03-04T03:14:02;7.50;;;4.40;;
77400;SDS011;66855;45.414;11.082;2023-03-04T03:16:28;10.30;;;4.60;;
77400;SDS011;66855;45.414;11.082;2023-03-04T03:18:54;7.90;;;4.00;;
77400;SDS011;66855;45.414;11.082;2023-03-04T03:21:21;8.30;;;4.90;;
77400;SDS011;66855;45.414;11.082;2023-03-04T03:23:48;11.50;;;4.50;;
77400;SDS011;66855;45.414;11.082;2023-03-04T03:26:14;6.70;;;4.00;;
77400;SDS011;66855;45.414;11.082;2023-03-04T03:28:41;7.60;;;3.80;;
77400;SDS011;66855;45.414;11.082;2023-03-04T03:31:07;7.20;;;3.40;;
77400;SDS011;66855;45.414;11.082;2023-03-04T03:33:34;6.40;;;3.30;;
77400;SDS011;66855;45.414;11.082;2023-03-04T03:36:00;9.00;;;4.50;;
77400;SDS011;66855;45.414;11.082;2023-03-04T03:38:26;6.70;;;3.80;;
77400;SDS011;66855;45.414;11.082;2023-03-04T03:40:53;8.10;;;4.30;;
77400;SDS011;66855;45.414;11.082;2023-03-04T03:43:19;10.30;;;4.50;;
77400;SDS011;66855;45.414;11.082;2023-03-04T03:45:45;9.20;;;4.60;;
77400;SDS011;66855;45.414;11.082;2023-03-04T03:48:11;8.00;;;4.50;;
77400;SDS011;66855;45.414;11.082;2023-03-04T03:50:37;7.30;;;4.60;;
77400;SDS011;66855;45.414;11.082;2023-03-04T03:53:03;9.10;;;4.50;;
77400;SDS011;66855;45.414;11.082;2023-03-04T03:55:30;7.50;;;3.90;;
77400;SDS011;66855;45.414;11.082;2023-03-04T03:57:56;7.00;;;3.90;;
77400;SDS011;66855;45.414;11.082;2023-03-04T04:00:22;6.30;;;4.20;;
77400;SDS011;66855;45.414;11.082;2023-03-04T04:02:49;8.10;;;4.40;;
77400;SDS011;66855;45.414;11.082;2023-03-04T04:05:15;8.80;;;4.80;;
77400;SDS011;66855;45.414;11.082;2023-03-04T04:07:41;9.40;;;4.70;;
77400;SDS011;66855;45.414;11.082;2023-03-04T04:10:07;9.80;;;3.80;;
77400;SDS011;66855;45.414;11.082;2023-03-04T04:12:36;8.80;;;5.00;;
77400;SDS011;66855;45.414;11.082;2023-03-04T04:15:02;9.30;;;5.00;;
77400;SDS011;66855;45.414;11.082;2023-03-04T04:17:28;9.70;;;4.80;;
77400;SDS011;66855;45.414;11.082;2023-03-04T04:19:54;9.80;;;4.30;;
77400;SDS011;66855;45.414;11.082;2023-03-04T04:22:20;7.90;;;4.30;;
77400;SDS011;66855;45.414;11.082;2023-03-04T04:24:47;8.20;;;4.70;;
77400;SDS011;66855;45.414;11.082;2023-03-04T04:27:13;10.80;;;5.10;;
77400;SDS011;66855;45.414;11.082;2023-03-04T04:29:39;9.60;;;5.20;;
77400;SDS011;66855;45.414;11.082;2023-03-04T04:32:06;9.40;;;5.30;;
77400;SDS011;66855;45.414;11.082;2023-03-04T04:34:33;10.10;;;5.20;;
77400;SDS011;66855;45.414;11.082;2023-03-04T04:36:59;13.70;;;5.70;;
77400;SDS011;66855;45.414;11.082;2023-03-04T04:39:25;9.60;;;5.20;;
77400;SDS011;66855;45.414;11.082;2023-03-04T04:41:52;12.80;;;5.70;;
77400;SDS011;66855;45.414;11.082;2023-03-04T04:44:18;9.60;;;5.40;;
77400;SDS011;66855;45.414;11.082;2023-03-04T04:46:44;11.50;;;6.80;;
77400;SDS011;66855;45.414;11.082;2023-03-04T04:49:10;11.20;;;5.50;;
77400;SDS011;66855;45.414;11.082;2023-03-04T04:51:36;11.40;;;5.30;;
77400;SDS011;66855;45.414;11.082;2023-03-04T04:54:03;11.90;;;5.70;;
77400;SDS011;66855;45.414;11.082;2023-03-04T04:56:30;8.60;;;4.70;;
77400;SDS011;66855;45.414;11.082;2023-03-04T04:58:58;11.00;;;5.60;;
77400;SDS011;66855;45.414;11.082;2023-03-04T05:01:25;13.80;;;5.50;;
77400;SDS011;66855;45.414;11.082;2023-03-04T05:03:52;11.50;;;5.90;;
77400;SDS011;66855;45.414;11.082;2023-03-04T05:06:20;9.80;;;5.30;;
77400;SDS011;66855;45.414;11.082;2023-03-04T05:08:48;9.80;;;5.20;;
77400;SDS011;66855;45.414;11.082;2023-03-04T05:11:14;9.30;;;5.10;;
77400;SDS011;66855;45.414;11.082;2023-03-04T05:13:41;11.80;;;5.30;;
77400;SDS011;66855;45.414;11.082;2023-03-04T05:16:07;10.90;;;4.80;;
77400;SDS011;66855;45.414;11.082;2023-03-04T05:18:34;10.70;;;4.50;;
77400;SDS011;66855;45.414;11.082;2023-03-04T05:21:00;10.10;;;5.10;;
77400;SDS011;66855;45.414;11.082;2023-03-04T05:23:28;10.50;;;5.30;;
77400;SDS011;66855;45.414;11.082;2023-03-04T05:25:56;8.30;;;4.90;;
77400;SDS011;66855;45.414;11.082;2023-03-04T05:28:22;10.10;;;5.50;;
77400;SDS011;66855;45.414;11.082;2023-03-04T05:30:48;10.50;;;5.50;;
77400;SDS011;66855;45.414;11.082;2023-03-04T05:33:15;11.00;;;5.50;;
77400;SDS011;66855;45.414;11.082;2023-03-04T05:35:42;12.50;;;5.90;;
77400;SDS011;66855;45.414;11.082;2023-03-04T05:38:10;10.40;;;5.90;;
77400;SDS011;66855;45.414;11.082;2023-03-04T05:40:37;11.50;;;6.40;;
77400;SDS011;66855;45.414;11.082;2023-03-04T05:43:04;13.70;;;6.70;;
77400;SDS011;66855;45.414;11.082;2023-03-04T05:45:30;13.80;;;7.00;;
77400;SDS011;66855;45.414;11.082;2023-03-04T05:47:56;13.40;;;6.40;;
77400;SDS011;66855;45.414;11.082;2023-03-04T05:50:23;12.20;;;5.30;;
77400;SDS011;66855;45.414;11.082;2023-03-04T05:52:51;14.00;;;6.70;;
77400;SDS011;66855;45.414;11.082;2023-03-04T05:55:17;14.40;;;7.10;;
77400;SDS011;66855;45.414;11.082;2023-03-04T05:57:44;12.90;;;6.10;;
77400;SDS011;66855;45.414;11.082;2023-03-04T06:00:11;12.40;;;6.20;;
77400;SDS011;66855;45.414;11.082;2023-03-04T06:02:38;10.80;;;6.10;;
77400;SDS011;66855;45.414;11.082;2023-03-04T06:05:05;14.20;;;6.40;;
77400;SDS011;66855;45.414;11.082;2023-03-04T06:07:33;16.30;;;7.20;;
77400;SDS011;66855;45.414;11.082;2023-03-04T06:10:00;19.80;;;7.30;;
77400;SDS011;66855;45.414;11.082;2023-03-04T06:12:26;13.20;;;7.40;;
77400;SDS011;66855;45.414;11.082;2023-03-04T06:14:53;12.00;;;6.60;;
77400;SDS011;66855;45.414;11.082;2023-03-04T06:17:20;13.00;;;6.40;;
77400;SDS011;66855;45.414;11.082;2023-03-04T06:19:46;12.10;;;6.50;;
77400;SDS011;66855;45.414;11.082;2023-03-04T06:22:12;13.30;;;7.00;;
77400;SDS011;66855;45.414;11.082;2023-03-04T06:24:38;12.70;;;6.60;;
77400;SDS011;66855;45.414;11.082;2023-03-04T06:27:04;12.40;;;5.70;;
77400;SDS011;66855;45.414;11.082;2023-03-04T06:29:30;13.00;;;6.50;;
77400;SDS011;66855;45.414;11.082;2023-03-04T06:31:56;13.50;;;6.70;;
77400;SDS011;66855;45.414;11.082;2023-03-04T06:34:22;14.00;;;7.00;;
77400;SDS011;66855;45.414;11.082;2023-03-04T06:36:48;11.60;;;6.20;;
77400;SDS011;66855;45.414;11.082;2023-03-04T06:39:15;14.90;;;8.10;;
77400;SDS011;66855;45.414;11.082;2023-03-04T06:41:41;15.20;;;7.70;;
77400;SDS011;66855;45.414;11.082;2023-03-04T06:44:07;12.10;;;7.20;;
77400;SDS011;66855;45.414;11.082;2023-03-04T06:46:33;15.60;;;7.80;;
77400;SDS011;66855;45.414;11.082;2023-03-04T06:49:00;12.90;;;7.60;;
77400;SDS011;66855;45.414;11.082;2023-03-04T06:51:27;16.50;;;7.70;;
77400;SDS011;66855;45.414;11.082;2023-03-04T06:53:53;15.10;;;7.20;;
77400;SDS011;66855;45.414;11.082;2023-03-04T06:56:19;15.70;;;7.60;;
77400;SDS011;66855;45.414;11.082;2023-03-04T06:58:45;16.70;;;8.40;;
77400;SDS011;66855;45.414;11.082;2023-03-04T07:01:19;15.70;;;7.80;;
77400;SDS011;66855;45.414;11.082;2023-03-04T07:03:47;16.00;;;8.30;;
77400;SDS011;66855;45.414;11.082;2023-03-04T07:06:18;18.00;;;8.70;;
77400;SDS011;66855;45.414;11.082;2023-03-04T07:08:45;22.50;;;10.50;;
77400;SDS011;66855;45.414;11.082;2023-03-04T07:11:11;19.30;;;10.50;;
77400;SDS011;66855;45.414;11.082;2023-03-04T07:13:38;19.70;;;10.40;;
77400;SDS011;66855;45.414;11.082;2023-03-04T07:16:05;22.00;;;10.40;;
77400;SDS011;66855;45.414;11.082;2023-03-04T07:18:36;21.70;;;9.90;;
77400;SDS011;66855;45.414;11.082;2023-03-04T07:21:03;20.20;;;9.80;;
77400;SDS011;66855;45.414;11.082;2023-03-04T07:23:29;20.00;;;9.40;;
77400;SDS011;66855;45.414;11.082;2023-03-04T07:25:56;18.00;;;10.00;;
77400;SDS011;66855;45.414;11.082;2023-03-04T07:30:51;18.20;;;8.20;;
77400;SDS011;66855;45.414;11.082;2023-03-04T07:33:17;17.00;;;9.40;;
77400;SDS011;66855;45.414;11.082;2023-03-04T07:35:43;18.20;;;9.90;;
77400;SDS011;66855;45.414;11.082;2023-03-04T07:38:09;22.10;;;8.90;;
77400;SDS011;66855;45.414;11.082;2023-03-04T07:40:35;20.60;;;8.70;;
77400;SDS011;66855;45.414;11.082;2023-03-04T07:43:02;16.50;;;8.60;;
77400;SDS011;66855;45.414;11.082;2023-03-04T07:45:28;17.90;;;9.90;;
77400;SDS011;66855;45.414;11.082;2023-03-04T07:47:54;21.50;;;10.40;;
77400;SDS011;66855;45.414;11.082;2023-03-04T07:50:20;22.80;;;11.70;;
77400;SDS011;66855;45.414;11.082;2023-03-04T07:52:48;22.80;;;11.20;;
77400;SDS011;66855;45.414;11.082;2023-03-04T07:55:18;23.80;;;11.80;;
77400;SDS011;66855;45.414;11.082;2023-03-04T07:57:45;22.90;;;12.20;;
77400;SDS011;66855;45.414;11.082;2023-03-04T08:00:13;21.40;;;11.80;;
77400;SDS011;66855;45.414;11.082;2023-03-04T08:02:41;18.70;;;10.60;;
77400;SDS011;66855;45.414;11.082;2023-03-04T08:05:07;20.30;;;12.00;;
77400;SDS011;66855;45.414;11.082;2023-03-04T08:07:33;21.00;;;11.40;;
77400;SDS011;66855;45.414;11.082;2023-03-04T08:10:00;20.40;;;10.10;;
77400;SDS011;66855;45.414;11.082;2023-03-04T08:12:26;19.50;;;11.20;;
77400;SDS011;66855;45.414;11.082;2023-03-04T08:14:52;20.30;;;10.50;;
77400;SDS011;66855;45.414;11.082;2023-03-04T08:17:18;28.10;;;12.50;;
77400;SDS011;66855;45.414;11.082;2023-03-04T08:19:45;21.80;;;11.40;;
77400;SDS011;66855;45.414;11.082;2023-03-04T08:22:11;22.10;;;12.40;;
77400;SDS011;66855;45.414;11.082;2023-03-04T08:24:38;23.00;;;12.40;;
77400;SDS011;66855;45.414;11.082;2023-03-04T08:27:04;22.90;;;13.40;;
77400;SDS011;66855;45.414;11.082;2023-03-04T08:29:30;22.30;;;13.30;;
77400;SDS011;66855;45.414;11.082;2023-03-04T08:31:56;23.80;;;13.60;;
77400;SDS011;66855;45.414;11.082;2023-03-04T08:34:25;22.70;;;12.80;;
77400;SDS011;66855;45.414;11.082;2023-03-04T08:36:52;22.80;;;13.80;;
77400;SDS011;66855;45.414;11.082;2023-03-04T08:39:19;22.90;;;13.70;;
77400;SDS011;66855;45.414;11.082;2023-03-04T08:41:45;21.10;;;12.50;;
77400;SDS011;66855;45.414;11.082;2023-03-04T08:44:12;22.50;;;13.20;;
77400;SDS011;66855;45.414;11.082;2023-03-04T08:46:39;20.80;;;12.30;;
77400;SDS011;66855;45.414;11.082;2023-03-04T08:49:07;24.30;;;13.40;;
77400;SDS011;66855;45.414;11.082;2023-03-04T08:51:36;20.00;;;12.60;;
77400;SDS011;66855;45.414;11.082;2023-03-04T08:54:02;27.50;;;13.20;;
77400;SDS011;66855;45.414;11.082;2023-03-04T08:56:29;22.20;;;12.70;;
77400;SDS011;66855;45.414;11.082;2023-03-04T08:58:55;21.80;;;11.80;;
77400;SDS011;66855;45.414;11.082;2023-03-04T09:01:21;24.00;;;12.20;;
77400;SDS011;66855;45.414;11.082;2023-03-04T09:03:48;20.50;;;12.10;;
77400;SDS011;66855;45.414;11.082;2023-03-04T09:06:15;21.00;;;12.20;;
77400;SDS011;66855;45.414;11.082;2023-03-04T09:08:42;21.40;;;12.40;;
77400;SDS011;66855;45.414;11.082;2023-03-04T09:11:09;20.20;;;11.80;;
77400;SDS011;66855;45.414;11.082;2023-03-04T09:13:35;22.30;;;12.40;;
77400;SDS011;66855;45.414;11.082;2023-03-04T09:16:07;20.00;;;12.20;;
77400;SDS011;66855;45.414;11.082;2023-03-04T09:18:38;18.60;;;11.00;;
77400;SDS011;66855;45.414;11.082;2023-03-04T09:21:05;18.00;;;11.80;;
77400;SDS011;66855;45.414;11.082;2023-03-04T09:23:33;20.00;;;12.00;;
77400;SDS011;66855;45.414;11.082;2023-03-04T09:26:24;19.90;;;10.70;;
77400;SDS011;66855;45.414;11.082;2023-03-04T09:28:53;21.40;;;11.20;;
77400;SDS011;66855;45.414;11.082;2023-03-04T09:31:21;19.40;;;10.80;;
77400;SDS011;66855;45.414;11.082;2023-03-04T09:33:48;18.20;;;10.50;;
77400;SDS011;66855;45.414;11.082;2023-03-04T09:36:15;18.20;;;10.50;;
77400;SDS011;66855;45.414;11.082;2023-03-04T09:38:42;21.30;;;10.90;;
77400;SDS011;66855;45.414;11.082;2023-03-04T09:41:09;16.70;;;9.80;;
77400;SDS011;66855;45.414;11.082;2023-03-04T09:43:40;19.10;;;11.20;;
77400;SDS011;66855;45.414;11.082;2023-03-04T09:46:12;14.70;;;9.10;;
77400;SDS011;66855;45.414;11.082;2023-03-04T09:48:46;17.20;;;9.90;;
77400;SDS011;66855;45.414;11.082;2023-03-04T09:56:56;17.30;;;8.80;;
77400;SDS011;66855;45.414;11.082;2023-03-04T09:59:44;15.70;;;9.20;;
77400;SDS011;66855;45.414;11.082;2023-03-04T10:02:33;18.60;;;9.60;;
77400;SDS011;66855;45.414;11.082;2023-03-04T10:05:12;16.40;;;9.50;;
77400;SDS011;66855;45.414;11.082;2023-03-04T10:07:44;18.10;;;10.30;;
77400;SDS011;66855;45.414;11.082;2023-03-04T10:10:21;14.90;;;9.60;;
77400;SDS011;66855;45.414;11.082;2023-03-04T10:12:50;18.00;;;9.90;;
77400;SDS011;66855;45.414;11.082;2023-03-04T10:17:50;17.80;;;9.30;;
77400;SDS011;66855;45.414;11.082;2023-03-04T10:20:23;16.20;;;9.60;;
77400;SDS011;66855;45.414;11.082;2023-03-04T10:23:04;16.60;;;9.60;;
77400;SDS011;66855;45.414;11.082;2023-03-04T10:25:34;17.30;;;10.50;;
77400;SDS011;66855;45.414;11.082;2023-03-04T10:28:11;16.50;;;10.20;;
77400;SDS011;66855;45.414;11.082;2023-03-04T10:33:30;16.40;;;9.70;;
77400;SDS011;66855;45.414;11.082;2023-03-04T10:38:32;15.60;;;10.20;;
77400;SDS011;66855;45.414;11.082;2023-03-04T10:41:00;19.10;;;10.10;;
77400;SDS011;66855;45.414;11.082;2023-03-04T10:43:27;17.50;;;10.40;;
77400;SDS011;66855;45.414;11.082;2023-03-04T10:45:56;18.80;;;9.90;;
77400;SDS011;66855;45.414;11.082;2023-03-04T10:48:24;17.20;;;10.20;;
77400;SDS011;66855;45.414;11.082;2023-03-04T10:50:52;16.80;;;9.80;;
77400;SDS011;66855;45.414;11.082;2023-03-04T10:55:58;19.30;;;10.80;;
77400;SDS011;66855;45.414;11.082;2023-03-04T10:58:24;19.30;;;10.90;;
77400;SDS011;66855;45.414;11.082;2023-03-04T11:01:00;18.10;;;10.20;;
77400;SDS011;66855;45.414;11.082;2023-03-04T11:03:32;20.00;;;11.00;;
77400;SDS011;66855;45.414;11.082;2023-03-04T11:06:11;16.00;;;10.30;;
77400;SDS011;66855;45.414;11.082;2023-03-04T11:08:44;17.20;;;10.30;;
77400;SDS011;66855;45.414;11.082;2023-03-04T11:11:22;18.60;;;11.40;;
77400;SDS011;66855;45.414;11.082;2023-03-04T11:14:21;15.90;;;10.40;;
77400;SDS011;66855;45.414;11.082;2023-03-04T11:16:53;20.20;;;11.70;;
77400;SDS011;66855;45.414;11.082;2023-03-04T11:19:26;19.00;;;11.00;;
77400;SDS011;66855;45.414;11.082;2023-03-04T11:22:04;20.60;;;11.60;;
77400;SDS011;66855;45.414;11.082;2023-03-04T11:24:32;24.20;;;12.60;;
77400;SDS011;66855;45.414;11.082;2023-03-04T11:27:04;22.50;;;12.90;;
77400;SDS011;66855;45.414;11.082;2023-03-04T11:29:33;22.40;;;12.90;;
77400;SDS011;66855;45.414;11.082;2023-03-04T11:32:04;21.70;;;13.10;;
77400;SDS011;66855;45.414;11.082;2023-03-04T11:40:00;22.50;;;13.60;;
77400;SDS011;66855;45.414;11.082;2023-03-04T11:45:27;21.20;;;13.20;;
77400;SDS011;66855;45.414;11.082;2023-03-04T11:48:11;21.30;;;13.30;;
77400;SDS011;66855;45.414;11.082;2023-03-04T11:50:47;20.50;;;12.50;;
77400;SDS011;66855;45.414;11.082;2023-03-04T11:53:28;22.40;;;14.10;;
77400;SDS011;66855;45.414;11.082;2023-03-04T12:07:12;23.10;;;12.90;;
77400;SDS011;66855;45.414;11.082;2023-03-04T12:12:30;20.70;;;13.20;;
77400;SDS011;66855;45.414;11.082;2023-03-04T12:25:57;22.00;;;13.40;;
77400;SDS011;66855;45.414;11.082;2023-03-04T12:48:36;18.90;;;11.70;;
77400;SDS011;66855;45.414;11.082;2023-03-04T12:57:06;21.60;;;11.80;;
77400;SDS011;66855;45.414;11.082;2023-03-04T12:59:39;22.40;;;12.10;;
77400;SDS011;66855;45.414;11.082;2023-03-04T13:07:33;20.20;;;13.00;;
77400;SDS011;66855;45.414;11.082;2023-03-04T13:10:17;19.70;;;12.50;;
77400;SDS011;66855;45.414;11.082;2023-03-04T13:12:46;19.20;;;12.50;;
77400;SDS011;66855;45.414;11.082;2023-03-04T13:22:53;21.20;;;12.50;;
77400;SDS011;66855;45.414;11.082;2023-03-04T13:28:17;20.40;;;11.90;;
77400;SDS011;66855;45.414;11.082;2023-03-04T13:38:32;24.60;;;14.00;;
77400;SDS011;66855;45.414;11.082;2023-03-04T13:48:45;24.50;;;13.60;;
77400;SDS011;66855;45.414;11.082;2023-03-04T14:04:29;21.30;;;13.10;;
77400;SDS011;66855;45.414;11.082;2023-03-04T14:07:16;21.70;;;14.30;;
77400;SDS011;66855;45.414;11.082;2023-03-04T14:09:52;21.00;;;13.00;;
77400;SDS011;66855;45.414;11.082;2023-03-04T14:12:20;21.10;;;12.70;;
77400;SDS011;66855;45.414;11.082;2023-03-04T14:14:51;20.80;;;13.70;;
77400;SDS011;66855;45.414;11.082;2023-03-04T14:17:21;22.60;;;12.80;;
77400;SDS011;66855;45.414;11.082;2023-03-04T14:19:50;21.80;;;13.30;;
77400;SDS011;66855;45.414;11.082;2023-03-04T14:22:27;21.60;;;13.30;;
77400;SDS011;66855;45.414;11.082;2023-03-04T14:27:44;22.50;;;13.40;;
77400;SDS011;66855;45.414;11.082;2023-03-04T14:33:00;22.00;;;12.90;;
77400;SDS011;66855;45.414;11.082;2023-03-04T14:35:28;21.50;;;13.00;;
77400;SDS011;66855;45.414;11.082;2023-03-04T14:40:40;24.30;;;14.10;;
77400;SDS011;66855;45.414;11.082;2023-03-04T14:43:10;23.80;;;13.10;;
77400;SDS011;66855;45.414;11.082;2023-03-04T14:45:41;21.20;;;12.20;;
77400;SDS011;66855;45.414;11.082;2023-03-04T14:48:10;22.50;;;13.30;;
77400;SDS011;66855;45.414;11.082;2023-03-04T14:50:50;22.20;;;12.70;;
77400;SDS011;66855;45.414;11.082;2023-03-04T14:53:19;21.20;;;13.00;;
77400;SDS011;66855;45.414;11.082;2023-03-04T14:58:25;21.20;;;13.40;;
77400;SDS011;66855;45.414;11.082;2023-03-04T15:04:03;20.60;;;13.10;;
77400;SDS011;66855;45.414;11.082;2023-03-04T15:06:33;23.00;;;13.50;;
77400;SDS011;66855;45.414;11.082;2023-03-04T15:11:31;23.80;;;13.70;;
77400;SDS011;66855;45.414;11.082;2023-03-04T15:14:38;20.60;;;13.20;;
77400;SDS011;66855;45.414;11.082;2023-03-04T15:17:24;19.80;;;13.20;;
77400;SDS011;66855;45.414;11.082;2023-03-04T15:19:57;24.30;;;15.10;;
77400;SDS011;66855;45.414;11.082;2023-03-04T15:22:34;21.20;;;12.80;;
77400;SDS011;66855;45.414;11.082;2023-03-04T15:25:18;23.00;;;14.20;;
77400;SDS011;66855;45.414;11.082;2023-03-04T15:27:48;22.90;;;14.00;;
77400;SDS011;66855;45.414;11.082;2023-03-04T15:30:15;24.00;;;14.90;;
77400;SDS011;66855;45.414;11.082;2023-03-04T15:32:54;26.40;;;15.50;;
77400;SDS011;66855;45.414;11.082;2023-03-04T15:35:21;23.10;;;13.80;;
77400;SDS011;66855;45.414;11.082;2023-03-04T15:37:49;23.20;;;14.10;;
77400;SDS011;66855;45.414;11.082;2023-03-04T15:40:20;24.50;;;13.60;;
77400;SDS011;66855;45.414;11.082;2023-03-04T15:42:50;23.30;;;13.50;;
77400;SDS011;66855;45.414;11.082;2023-03-04T15:45:24;21.60;;;13.20;;
77400;SDS011;66855;45.414;11.082;2023-03-04T15:47:52;24.70;;;14.20;;
77400;SDS011;66855;45.414;11.082;2023-03-04T15:50:18;21.20;;;13.50;;
77400;SDS011;66855;45.414;11.082;2023-03-04T15:52:45;25.50;;;15.00;;
77400;SDS011;66855;45.414;11.082;2023-03-04T15:55:13;22.50;;;12.90;;
77400;SDS011;66855;45.414;11.082;2023-03-04T15:57:44;22.70;;;14.00;;
77400;SDS011;66855;45.414;11.082;2023-03-04T16:00:12;30.00;;;17.20;;
77400;SDS011;66855;45.414;11.082;2023-03-04T16:02:39;25.40;;;15.10;;
77400;SDS011;66855;45.414;11.082;2023-03-04T16:05:05;25.90;;;15.60;;
77400;SDS011;66855;45.414;11.082;2023-03-04T16:07:32;24.90;;;14.40;;
77400;SDS011;66855;45.414;11.082;2023-03-04T16:09:59;25.30;;;14.60;;
77400;SDS011;66855;45.414;11.082;2023-03-04T16:12:28;22.30;;;13.50;;
77400;SDS011;66855;45.414;11.082;2023-03-04T16:14:54;21.90;;;12.70;;
77400;SDS011;66855;45.414;11.082;2023-03-04T16:17:20;25.00;;;14.80;;
77400;SDS011;66855;45.414;11.082;2023-03-04T16:19:46;26.60;;;14.60;;
77400;SDS011;66855;45.414;11.082;2023-03-04T16:22:13;22.40;;;13.60;;
77400;SDS011;66855;45.414;11.082;2023-03-04T16:24:41;22.10;;;14.10;;
77400;SDS011;66855;45.414;11.082;2023-03-04T16:27:11;24.70;;;14.10;;
77400;SDS011;66855;45.414;11.082;2023-03-04T16:29:39;29.80;;;14.90;;
77400;SDS011;66855;45.414;11.082;2023-03-04T16:32:06;23.50;;;14.30;;
77400;SDS011;66855;45.414;11.082;2023-03-04T16:34:33;24.90;;;13.80;;
77400;SDS011;66855;45.414;11.082;2023-03-04T16:36:59;22.40;;;14.50;;
77400;SDS011;66855;45.414;11.082;2023-03-04T16:39:30;24.70;;;15.00;;
77400;SDS011;66855;45.414;11.082;2023-03-04T16:41:56;23.60;;;14.70;;
77400;SDS011;66855;45.414;11.082;2023-03-04T16:44:22;25.80;;;15.20;;
77400;SDS011;66855;45.414;11.082;2023-03-04T16:46:48;44.00;;;23.90;;
77400;SDS011;66855;45.414;11.082;2023-03-04T16:49:14;42.90;;;20.80;;
77400;SDS011;66855;45.414;11.082;2023-03-04T16:51:42;53.90;;;24.90;;
77400;SDS011;66855;45.414;11.082;2023-03-04T16:54:13;79.80;;;37.90;;